sensor_id;sensor_type;location;lat;lon;timestamp;P1;durP1;ratioP1;P2;durP2;ratioP2
62925;SDS011;55732;52.248;-0.844;2023-02-28T00:00:45;4.60;;;2.60;;
62925;SDS011;55732;52.248;-0.844;2023-02-28T00:03:10;2.70;;;2.00;;
62925;SDS011;55732;52.248;-0.844;2023-02-28T00:05:36;4.20;;;2.30;;
62925;SDS011;55732;52.248;-0.844;2023-02-28T00:08:01;7.00;;;2.60;;
62925;SDS011;55732;52.248;-0.844;2023-02-28T00:10:28;7.00;;;2.50;;
62925;SDS011;55732;52.248;-0.844;2023-02-28T00:12:56;5.10;;;2.40;;
62925;SDS011;55732;52.248;-0.844;2023-02-28T00:15:25;3.60;;;2.20;;
62925;SDS011;55732;52.248;-0.844;2023-02-28T00:17:51;5.20;;;2.40;;
62925;SDS011;55732;52.248;-0.844;2023-02-28T00:20:16;4.80;;;2.20;;
62925;SDS011;55732;52.248;-0.844;2023-02-28T00:22:43;6.70;;;2.50;;
62925;SDS011;55732;52.248;-0.844;2023-02-28T00:25:11;2.40;;;1.90;;
62925;SDS011;55732;52.248;-0.844;2023-02-28T00:30:05;4.00;;;2.00;;
62925;SDS011;55732;52.248;-0.844;2023-02-28T00:32:32;3.30;;;2.00;;
62925;SDS011;55732;52.248;-0.844;2023-02-28T00:34:59;3.40;;;1.90;;
62925;SDS011;55732;52.248;-0.844;2023-02-28T00:37:25;2.80;;;1.80;;
62925;SDS011;55732;52.248;-0.844;2023-02-28T00:39:51;5.50;;;2.20;;
62925;SDS011;55732;52.248;-0.844;2023-02-28T00:42:17;3.70;;;2.00;;
62925;SDS011;55732;52.248;-0.844;2023-02-28T00:44:42;4.30;;;2.00;;
62925;SDS011;55732;52.248;-0.844;2023-02-28T00:47:08;4.30;;;1.80;;
62925;SDS011;55732;52.248;-0.844;2023-02-28T00:49:33;7.10;;;2.30;;
62925;SDS011;55732;52.248;-0.844;2023-02-28T00:51:59;8.20;;;2.40;;
62925;SDS011;55732;52.248;-0.844;2023-02-28T00:54:24;2.70;;;2.00;;
62925;SDS011;55732;52.248;-0.844;2023-02-28T00:56:49;7.20;;;2.60;;
62925;SDS011;55732;52.248;-0.844;2023-02-28T00:59:15;5.60;;;2.60;;
62925;SDS011;55732;52.248;-0.844;2023-02-28T01:01:42;6.30;;;2.50;;
62925;SDS011;55732;52.248;-0.844;2023-02-28T01:04:09;5.30;;;2.70;;
62925;SDS011;55732;52.248;-0.844;2023-02-28T01:06:35;5.80;;;2.40;;
62925;SDS011;55732;52.248;-0.844;2023-02-28T01:09:01;3.80;;;2.30;;
62925;SDS011;55732;52.248;-0.844;2023-02-28T01:11:27;5.20;;;2.30;;
62925;SDS011;55732;52.248;-0.844;2023-02-28T01:13:52;3.50;;;2.40;;
62925;SDS011;55732;52.248;-0.844;2023-02-28T01:16:18;6.20;;;2.60;;
62925;SDS011;55732;52.248;-0.844;2023-02-28T01:18:43;7.70;;;2.50;;
62925;SDS011;55732;52.248;-0.844;2023-02-28T01:21:12;4.90;;;2.60;;
62925;SDS011;55732;52.248;-0.844;2023-02-28T01:23:40;5.20;;;2.70;;
62925;SDS011;55732;52.248;-0.844;2023-02-28T01:26:16;5.50;;;2.80;;
62925;SDS011;55732;52.248;-0.844;2023-02-28T01:31:09;4.00;;;2.40;;
62925;SDS011;55732;52.248;-0.844;2023-02-28T01:33:35;6.20;;;3.20;;
62925;SDS011;55732;52.248;-0.844;2023-02-28T01:36:05;4.40;;;2.70;;
62925;SDS011;55732;52.248;-0.844;2023-02-28T01:38:34;7.80;;;2.90;;
62925;SDS011;55732;52.248;-0.844;2023-02-28T01:40:59;5.00;;;2.70;;
62925;SDS011;55732;52.248;-0.844;2023-02-28T01:43:27;6.40;;;3.20;;
62925;SDS011;55732;52.248;-0.844;2023-02-28T01:45:54;9.30;;;3.60;;
62925;SDS011;55732;52.248;-0.844;2023-02-28T01:48:23;6.20;;;3.20;;
62925;SDS011;55732;52.248;-0.844;2023-02-28T01:50:52;9.10;;;3.50;;
62925;SDS011;55732;52.248;-0.844;2023-02-28T01:53:26;7.10;;;3.10;;
62925;SDS011;55732;52.248;-0.844;2023-02-28T01:56:05;4.80;;;2.80;;
62925;SDS011;55732;52.248;-0.844;2023-02-28T01:58:33;8.90;;;3.10;;
62925;SDS011;55732;52.248;-0.844;2023-02-28T02:01:00;7.70;;;3.40;;
62925;SDS011;55732;52.248;-0.844;2023-02-28T02:03:27;6.20;;;3.40;;
62925;SDS011;55732;52.248;-0.844;2023-02-28T02:05:56;9.10;;;2.80;;
62925;SDS011;55732;52.248;-0.844;2023-02-28T02:08:25;6.60;;;2.80;;
62925;SDS011;55732;52.248;-0.844;2023-02-28T02:10:57;5.30;;;2.70;;
62925;SDS011;55732;52.248;-0.844;2023-02-28T02:24:56;4.70;;;2.70;;
62925;SDS011;55732;52.248;-0.844;2023-02-28T02:40:35;6.50;;;3.30;;
62925;SDS011;55732;52.248;-0.844;2023-02-28T02:43:29;7.40;;;3.00;;
62925;SDS011;55732;52.248;-0.844;2023-02-28T02:46:12;4.10;;;3.40;;
62925;SDS011;55732;52.248;-0.844;2023-02-28T02:48:45;7.20;;;4.10;;
62925;SDS011;55732;52.248;-0.844;2023-02-28T02:51:13;7.10;;;4.20;;
62925;SDS011;55732;52.248;-0.844;2023-02-28T02:53:44;8.60;;;3.70;;
62925;SDS011;55732;52.248;-0.844;2023-02-28T02:56:14;5.40;;;3.20;;
62925;SDS011;55732;52.248;-0.844;2023-02-28T02:58:44;5.90;;;2.80;;
62925;SDS011;55732;52.248;-0.844;2023-02-28T03:06:05;3.80;;;2.60;;
62925;SDS011;55732;52.248;-0.844;2023-02-28T03:08:34;3.10;;;2.70;;
62925;SDS011;55732;52.248;-0.844;2023-02-28T03:11:03;3.60;;;2.90;;
62925;SDS011;55732;52.248;-0.844;2023-02-28T03:19:08;4.00;;;3.30;;
62925;SDS011;55732;52.248;-0.844;2023-02-28T03:21:43;5.10;;;3.10;;
62925;SDS011;55732;52.248;-0.844;2023-02-28T03:24:31;3.20;;;2.90;;
62925;SDS011;55732;52.248;-0.844;2023-02-28T03:26:58;5.50;;;3.10;;
62925;SDS011;55732;52.248;-0.844;2023-02-28T03:29:33;5.00;;;3.20;;
62925;SDS011;55732;52.248;-0.844;2023-02-28T03:32:05;6.00;;;3.10;;
62925;SDS011;55732;52.248;-0.844;2023-02-28T03:34:45;3.10;;;2.50;;
62925;SDS011;55732;52.248;-0.844;2023-02-28T03:37:18;3.20;;;2.70;;
62925;SDS011;55732;52.248;-0.844;2023-02-28T03:39:59;2.60;;;2.40;;
62925;SDS011;55732;52.248;-0.844;2023-02-28T03:42:31;5.00;;;2.70;;
62925;SDS011;55732;52.248;-0.844;2023-02-28T03:45:01;4.40;;;2.80;;
62925;SDS011;55732;52.248;-0.844;2023-02-28T03:47:38;5.70;;;3.30;;
62925;SDS011;55732;52.248;-0.844;2023-02-28T03:50:13;4.10;;;2.70;;
62925;SDS011;55732;52.248;-0.844;2023-02-28T03:53:01;4.80;;;2.70;;
62925;SDS011;55732;52.248;-0.844;2023-02-28T03:55:34;6.80;;;3.10;;
62925;SDS011;55732;52.248;-0.844;2023-02-28T03:58:53;5.60;;;2.90;;
62925;SDS011;55732;52.248;-0.844;2023-02-28T04:04:02;2.50;;;2.00;;
62925;SDS011;55732;52.248;-0.844;2023-02-28T04:06:28;6.90;;;2.80;;
62925;SDS011;55732;52.248;-0.844;2023-02-28T04:08:57;7.40;;;2.50;;
62925;SDS011;55732;52.248;-0.844;2023-02-28T04:11:24;5.00;;;2.70;;
62925;SDS011;55732;52.248;-0.844;2023-02-28T04:13:55;4.40;;;2.60;;
62925;SDS011;55732;52.248;-0.844;2023-02-28T04:16:20;9.40;;;2.80;;
62925;SDS011;55732;52.248;-0.844;2023-02-28T04:18:46;4.10;;;2.60;;
62925;SDS011;55732;52.248;-0.844;2023-02-28T04:21:12;4.20;;;2.50;;
62925;SDS011;55732;52.248;-0.844;2023-02-28T04:23:37;4.00;;;2.40;;
62925;SDS011;55732;52.248;-0.844;2023-02-28T04:26:03;4.10;;;2.40;;
62925;SDS011;55732;52.248;-0.844;2023-02-28T04:28:29;7.30;;;3.20;;
62925;SDS011;55732;52.248;-0.844;2023-02-28T04:30:55;6.40;;;3.10;;
62925;SDS011;55732;52.248;-0.844;2023-02-28T04:33:22;6.00;;;3.40;;
62925;SDS011;55732;52.248;-0.844;2023-02-28T04:35:47;3.80;;;2.70;;
62925;SDS011;55732;52.248;-0.844;2023-02-28T04:38:12;6.20;;;2.80;;
62925;SDS011;55732;52.248;-0.844;2023-02-28T04:40:38;4.40;;;3.00;;
62925;SDS011;55732;52.248;-0.844;2023-02-28T04:43:03;3.50;;;2.70;;
62925;SDS011;55732;52.248;-0.844;2023-02-28T04:45:29;4.60;;;2.60;;
62925;SDS011;55732;52.248;-0.844;2023-02-28T04:47:57;2.40;;;2.20;;
62925;SDS011;55732;52.248;-0.844;2023-02-28T04:50:23;2.40;;;1.90;;
62925;SDS011;55732;52.248;-0.844;2023-02-28T04:52:49;3.70;;;2.30;;
62925;SDS011;55732;52.248;-0.844;2023-02-28T04:55:14;3.40;;;2.40;;
62925;SDS011;55732;52.248;-0.844;2023-02-28T04:57:39;3.60;;;2.00;;
62925;SDS011;55732;52.248;-0.844;2023-02-28T05:00:08;2.90;;;1.90;;
62925;SDS011;55732;52.248;-0.844;2023-02-28T05:02:36;4.30;;;2.30;;
62925;SDS011;55732;52.248;-0.844;2023-02-28T05:05:03;2.70;;;2.10;;
62925;SDS011;55732;52.248;-0.844;2023-02-28T05:07:29;2.60;;;2.10;;
62925;SDS011;55732;52.248;-0.844;2023-02-28T05:09:55;2.60;;;2.20;;
62925;SDS011;55732;52.248;-0.844;2023-02-28T05:12:20;1.80;;;1.60;;
62925;SDS011;55732;52.248;-0.844;2023-02-28T05:14:45;3.00;;;1.90;;
62925;SDS011;55732;52.248;-0.844;2023-02-28T05:17:11;1.90;;;1.70;;
62925;SDS011;55732;52.248;-0.844;2023-02-28T05:19:36;2.00;;;1.80;;
62925;SDS011;55732;52.248;-0.844;2023-02-28T05:22:01;2.00;;;1.80;;
62925;SDS011;55732;52.248;-0.844;2023-02-28T05:24:27;3.90;;;2.00;;
62925;SDS011;55732;52.248;-0.844;2023-02-28T05:26:53;2.70;;;1.80;;
62925;SDS011;55732;52.248;-0.844;2023-02-28T05:29:20;1.90;;;1.40;;
62925;SDS011;55732;52.248;-0.844;2023-02-28T05:31:46;3.00;;;1.90;;
62925;SDS011;55732;52.248;-0.844;2023-02-28T05:34:11;3.20;;;1.70;;
62925;SDS011;55732;52.248;-0.844;2023-02-28T05:36:37;3.40;;;1.70;;
62925;SDS011;55732;52.248;-0.844;2023-02-28T05:39:07;3.40;;;2.10;;
62925;SDS011;55732;52.248;-0.844;2023-02-28T05:41:37;3.50;;;2.20;;
62925;SDS011;55732;52.248;-0.844;2023-02-28T05:44:04;3.00;;;2.10;;
62925;SDS011;55732;52.248;-0.844;2023-02-28T05:46:29;2.10;;;1.70;;
62925;SDS011;55732;52.248;-0.844;2023-02-28T05:48:55;2.10;;;1.90;;
62925;SDS011;55732;52.248;-0.844;2023-02-28T05:51:22;2.30;;;1.90;;
62925;SDS011;55732;52.248;-0.844;2023-02-28T05:53:48;3.10;;;2.20;;
62925;SDS011;55732;52.248;-0.844;2023-02-28T05:56:14;3.70;;;2.30;;
62925;SDS011;55732;52.248;-0.844;2023-02-28T05:58:40;5.20;;;2.10;;
62925;SDS011;55732;52.248;-0.844;2023-02-28T06:03:59;2.30;;;1.90;;
62925;SDS011;55732;52.248;-0.844;2023-02-28T06:06:25;2.10;;;1.90;;
62925;SDS011;55732;52.248;-0.844;2023-02-28T06:08:51;2.20;;;2.00;;
62925;SDS011;55732;52.248;-0.844;2023-02-28T06:11:16;2.50;;;2.10;;
62925;SDS011;55732;52.248;-0.844;2023-02-28T06:13:44;2.60;;;2.10;;
62925;SDS011;55732;52.248;-0.844;2023-02-28T06:16:10;3.00;;;1.90;;
62925;SDS011;55732;52.248;-0.844;2023-02-28T06:18:36;2.80;;;2.00;;
62925;SDS011;55732;52.248;-0.844;2023-02-28T06:21:02;3.60;;;1.90;;
62925;SDS011;55732;52.248;-0.844;2023-02-28T06:23:28;4.90;;;1.80;;
62925;SDS011;55732;52.248;-0.844;2023-02-28T06:25:53;2.50;;;2.00;;
62925;SDS011;55732;52.248;-0.844;2023-02-28T06:28:22;2.80;;;2.00;;
62925;SDS011;55732;52.248;-0.844;2023-02-28T06:30:48;2.70;;;2.00;;
62925;SDS011;55732;52.248;-0.844;2023-02-28T06:33:13;4.90;;;2.30;;
62925;SDS011;55732;52.248;-0.844;2023-02-28T06:35:38;2.30;;;1.90;;
62925;SDS011;55732;52.248;-0.844;2023-02-28T06:38:04;2.80;;;2.00;;
62925;SDS011;55732;52.248;-0.844;2023-02-28T06:40:30;2.30;;;1.80;;
62925;SDS011;55732;52.248;-0.844;2023-02-28T06:42:59;2.70;;;1.80;;
62925;SDS011;55732;52.248;-0.844;2023-02-28T06:45:24;1.90;;;1.60;;
62925;SDS011;55732;52.248;-0.844;2023-02-28T06:47:51;3.20;;;2.20;;
62925;SDS011;55732;52.248;-0.844;2023-02-28T06:50:18;2.10;;;1.80;;
62925;SDS011;55732;52.248;-0.844;2023-02-28T06:52:44;2.50;;;1.90;;
62925;SDS011;55732;52.248;-0.844;2023-02-28T06:55:10;2.90;;;1.80;;
62925;SDS011;55732;52.248;-0.844;2023-02-28T06:57:36;3.30;;;1.50;;
62925;SDS011;55732;52.248;-0.844;2023-02-28T07:00:04;3.30;;;1.90;;
62925;SDS011;55732;52.248;-0.844;2023-02-28T07:02:32;2.20;;;1.60;;
62925;SDS011;55732;52.248;-0.844;2023-02-28T07:04:58;3.30;;;1.90;;
62925;SDS011;55732;52.248;-0.844;2023-02-28T07:07:23;3.20;;;2.00;;
62925;SDS011;55732;52.248;-0.844;2023-02-28T07:09:49;2.10;;;1.90;;
62925;SDS011;55732;52.248;-0.844;2023-02-28T07:12:14;2.60;;;1.80;;
62925;SDS011;55732;52.248;-0.844;2023-02-28T07:14:40;4.40;;;2.20;;
62925;SDS011;55732;52.248;-0.844;2023-02-28T07:17:09;3.80;;;2.10;;
62925;SDS011;55732;52.248;-0.844;2023-02-28T07:19:37;3.20;;;2.00;;
62925;SDS011;55732;52.248;-0.844;2023-02-28T07:22:03;2.30;;;2.00;;
62925;SDS011;55732;52.248;-0.844;2023-02-28T07:24:29;4.80;;;1.90;;
62925;SDS011;55732;52.248;-0.844;2023-02-28T07:26:55;5.50;;;2.60;;
62925;SDS011;55732;52.248;-0.844;2023-02-28T07:29:21;1.80;;;1.70;;
62925;SDS011;55732;52.248;-0.844;2023-02-28T07:31:46;2.30;;;1.90;;
62925;SDS011;55732;52.248;-0.844;2023-02-28T07:34:12;7.20;;;2.00;;
62925;SDS011;55732;52.248;-0.844;2023-02-28T07:36:38;3.50;;;2.00;;
62925;SDS011;55732;52.248;-0.844;2023-02-28T07:39:04;3.50;;;1.90;;
62925;SDS011;55732;52.248;-0.844;2023-02-28T07:41:29;4.00;;;2.00;;
62925;SDS011;55732;52.248;-0.844;2023-02-28T07:43:58;3.30;;;2.00;;
62925;SDS011;55732;52.248;-0.844;2023-02-28T07:46:25;4.50;;;2.30;;
62925;SDS011;55732;52.248;-0.844;2023-02-28T07:48:51;3.50;;;2.40;;
62925;SDS011;55732;52.248;-0.844;2023-02-28T07:51:18;4.90;;;2.50;;
62925;SDS011;55732;52.248;-0.844;2023-02-28T07:53:43;4.90;;;2.60;;
62925;SDS011;55732;52.248;-0.844;2023-02-28T07:56:09;7.50;;;2.40;;
62925;SDS011;55732;52.248;-0.844;2023-02-28T07:58:36;5.50;;;2.40;;
62925;SDS011;55732;52.248;-0.844;2023-02-28T08:01:08;4.40;;;2.80;;
62925;SDS011;55732;52.248;-0.844;2023-02-28T08:03:35;6.80;;;2.70;;
62925;SDS011;55732;52.248;-0.844;2023-02-28T08:06:05;4.60;;;3.10;;
62925;SDS011;55732;52.248;-0.844;2023-02-28T08:08:33;3.50;;;2.70;;
62925;SDS011;55732;52.248;-0.844;2023-02-28T08:11:02;3.30;;;2.60;;
62925;SDS011;55732;52.248;-0.844;2023-02-28T08:13:28;5.60;;;3.00;;
62925;SDS011;55732;52.248;-0.844;2023-02-28T08:15:55;4.00;;;2.70;;
62925;SDS011;55732;52.248;-0.844;2023-02-28T08:18:21;4.40;;;2.80;;
62925;SDS011;55732;52.248;-0.844;2023-02-28T08:20:48;7.70;;;3.00;;
62925;SDS011;55732;52.248;-0.844;2023-02-28T08:23:13;11.50;;;4.60;;
62925;SDS011;55732;52.248;-0.844;2023-02-28T08:25:39;6.20;;;2.90;;
62925;SDS011;55732;52.248;-0.844;2023-02-28T08:28:05;6.00;;;3.20;;
62925;SDS011;55732;52.248;-0.844;2023-02-28T08:30:30;5.00;;;3.50;;
62925;SDS011;55732;52.248;-0.844;2023-02-28T08:32:55;5.50;;;3.20;;
62925;SDS011;55732;52.248;-0.844;2023-02-28T08:35:21;7.10;;;3.50;;
62925;SDS011;55732;52.248;-0.844;2023-02-28T08:37:48;7.50;;;4.20;;
62925;SDS011;55732;52.248;-0.844;2023-02-28T08:40:14;6.30;;;4.40;;
62925;SDS011;55732;52.248;-0.844;2023-02-28T08:42:49;7.70;;;4.50;;
62925;SDS011;55732;52.248;-0.844;2023-02-28T08:45:15;5.40;;;3.80;;
62925;SDS011;55732;52.248;-0.844;2023-02-28T08:47:41;6.80;;;4.40;;
62925;SDS011;55732;52.248;-0.844;2023-02-28T08:50:07;7.10;;;4.90;;
62925;SDS011;55732;52.248;-0.844;2023-02-28T08:52:33;9.10;;;4.60;;
62925;SDS011;55732;52.248;-0.844;2023-02-28T08:54:58;5.70;;;4.70;;
62925;SDS011;55732;52.248;-0.844;2023-02-28T08:57:24;6.60;;;4.30;;
62925;SDS011;55732;52.248;-0.844;2023-02-28T08:59:53;6.10;;;4.60;;
62925;SDS011;55732;52.248;-0.844;2023-02-28T09:02:18;6.40;;;4.30;;
62925;SDS011;55732;52.248;-0.844;2023-02-28T09:04:44;7.00;;;4.90;;
62925;SDS011;55732;52.248;-0.844;2023-02-28T09:07:12;5.00;;;3.80;;
62925;SDS011;55732;52.248;-0.844;2023-02-28T09:09:38;10.30;;;4.00;;
62925;SDS011;55732;52.248;-0.844;2023-02-28T09:12:19;5.60;;;4.00;;
62925;SDS011;55732;52.248;-0.844;2023-02-28T09:14:57;5.90;;;4.50;;
62925;SDS011;55732;52.248;-0.844;2023-02-28T09:17:22;7.30;;;4.20;;
62925;SDS011;55732;52.248;-0.844;2023-02-28T09:19:48;6.90;;;4.40;;
62925;SDS011;55732;52.248;-0.844;2023-02-28T09:22:14;6.30;;;4.70;;
62925;SDS011;55732;52.248;-0.844;2023-02-28T09:24:40;7.80;;;4.00;;
62925;SDS011;55732;52.248;-0.844;2023-02-28T09:27:05;6.40;;;3.70;;
62925;SDS011;55732;52.248;-0.844;2023-02-28T09:29:31;8.10;;;3.70;;
62925;SDS011;55732;52.248;-0.844;2023-02-28T09:31:58;6.80;;;4.10;;
62925;SDS011;55732;52.248;-0.844;2023-02-28T09:34:24;5.40;;;3.50;;
62925;SDS011;55732;52.248;-0.844;2023-02-28T09:36:50;5.80;;;3.50;;
62925;SDS011;55732;52.248;-0.844;2023-02-28T09:39:22;8.00;;;4.30;;
62925;SDS011;55732;52.248;-0.844;2023-02-28T09:41:50;6.50;;;3.60;;
62925;SDS011;55732;52.248;-0.844;2023-02-28T09:47:18;7.70;;;4.90;;
62925;SDS011;55732;52.248;-0.844;2023-02-28T09:49:53;7.60;;;4.80;;
62925;SDS011;55732;52.248;-0.844;2023-02-28T09:52:28;6.10;;;4.00;;
62925;SDS011;55732;52.248;-0.844;2023-02-28T09:54:55;6.80;;;4.10;;
62925;SDS011;55732;52.248;-0.844;2023-02-28T09:57:29;8.00;;;4.20;;
62925;SDS011;55732;52.248;-0.844;2023-02-28T10:00:20;6.00;;;3.80;;
62925;SDS011;55732;52.248;-0.844;2023-02-28T10:05:38;5.60;;;4.10;;
62925;SDS011;55732;52.248;-0.844;2023-02-28T10:08:17;6.50;;;4.10;;
62925;SDS011;55732;52.248;-0.844;2023-02-28T10:10:57;8.40;;;4.50;;
62925;SDS011;55732;52.248;-0.844;2023-02-28T10:13:36;7.30;;;4.40;;
62925;SDS011;55732;52.248;-0.844;2023-02-28T10:16:16;6.90;;;4.30;;
62925;SDS011;55732;52.248;-0.844;2023-02-28T10:18:55;6.70;;;3.80;;
62925;SDS011;55732;52.248;-0.844;2023-02-28T10:23:53;5.90;;;4.40;;
62925;SDS011;55732;52.248;-0.844;2023-02-28T10:26:27;8.50;;;4.70;;
62925;SDS011;55732;52.248;-0.844;2023-02-28T10:28:55;5.80;;;4.20;;
62925;SDS011;55732;52.248;-0.844;2023-02-28T10:31:21;6.60;;;4.20;;
62925;SDS011;55732;52.248;-0.844;2023-02-28T10:33:47;6.10;;;3.20;;
62925;SDS011;55732;52.248;-0.844;2023-02-28T10:36:16;5.30;;;3.30;;
62925;SDS011;55732;52.248;-0.844;2023-02-28T10:38:44;5.00;;;3.60;;
62925;SDS011;55732;52.248;-0.844;2023-02-28T10:41:12;5.80;;;3.40;;
62925;SDS011;55732;52.248;-0.844;2023-02-28T10:43:40;5.20;;;3.80;;
62925;SDS011;55732;52.248;-0.844;2023-02-28T10:48:36;9.30;;;3.70;;
62925;SDS011;55732;52.248;-0.844;2023-02-28T10:51:07;4.10;;;3.10;;
62925;SDS011;55732;52.248;-0.844;2023-02-28T10:53:37;3.90;;;2.60;;
62925;SDS011;55732;52.248;-0.844;2023-02-28T11:01:48;5.40;;;3.60;;
62925;SDS011;55732;52.248;-0.844;2023-02-28T11:06:58;2.50;;;2.20;;
62925;SDS011;55732;52.248;-0.844;2023-02-28T11:09:31;3.10;;;2.10;;
62925;SDS011;55732;52.248;-0.844;2023-02-28T11:11:57;2.70;;;2.30;;
62925;SDS011;55732;52.248;-0.844;2023-02-28T11:14:27;4.30;;;2.70;;
62925;SDS011;55732;52.248;-0.844;2023-02-28T11:16:55;4.40;;;2.80;;
62925;SDS011;55732;52.248;-0.844;2023-02-28T11:19:34;5.40;;;3.20;;
62925;SDS011;55732;52.248;-0.844;2023-02-28T11:22:05;5.40;;;3.10;;
62925;SDS011;55732;52.248;-0.844;2023-02-28T11:24:33;4.60;;;3.20;;
62925;SDS011;55732;52.248;-0.844;2023-02-28T11:27:02;6.90;;;3.70;;
62925;SDS011;55732;52.248;-0.844;2023-02-28T11:29:29;5.30;;;2.90;;
62925;SDS011;55732;52.248;-0.844;2023-02-28T11:34:34;6.40;;;3.40;;
62925;SDS011;55732;52.248;-0.844;2023-02-28T11:37:01;4.40;;;3.20;;
62925;SDS011;55732;52.248;-0.844;2023-02-28T11:39:30;3.90;;;2.70;;
62925;SDS011;55732;52.248;-0.844;2023-02-28T11:55:17;6.40;;;3.60;;
62925;SDS011;55732;52.248;-0.844;2023-02-28T11:58:01;5.00;;;3.00;;
62925;SDS011;55732;52.248;-0.844;2023-02-28T12:06:55;2.60;;;2.20;;
62925;SDS011;55732;52.248;-0.844;2023-02-28T12:15:24;4.80;;;2.30;;
62925;SDS011;55732;52.248;-0.844;2023-02-28T12:20:41;4.00;;;2.10;;
62925;SDS011;55732;52.248;-0.844;2023-02-28T12:29:14;4.60;;;3.00;;
62925;SDS011;55732;52.248;-0.844;2023-02-28T12:34:33;3.00;;;2.40;;
62925;SDS011;55732;52.248;-0.844;2023-02-28T12:37:07;4.20;;;2.60;;
62925;SDS011;55732;52.248;-0.844;2023-02-28T12:39:41;4.30;;;2.50;;
62925;SDS011;55732;52.248;-0.844;2023-02-28T12:42:13;3.10;;;2.40;;
62925;SDS011;55732;52.248;-0.844;2023-02-28T12:44:56;2.90;;;2.30;;
62925;SDS011;55732;52.248;-0.844;2023-02-28T12:47:23;3.20;;;2.40;;
62925;SDS011;55732;52.248;-0.844;2023-02-28T12:49:50;3.90;;;2.50;;
62925;SDS011;55732;52.248;-0.844;2023-02-28T12:52:23;3.10;;;2.80;;
62925;SDS011;55732;52.248;-0.844;2023-02-28T13:00:14;4.00;;;2.50;;
62925;SDS011;55732;52.248;-0.844;2023-02-28T13:11:02;2.50;;;2.10;;
62925;SDS011;55732;52.248;-0.844;2023-02-28T13:13:28;2.20;;;2.00;;
62925;SDS011;55732;52.248;-0.844;2023-02-28T13:16:06;3.40;;;1.80;;
62925;SDS011;55732;52.248;-0.844;2023-02-28T13:21:01;3.20;;;2.20;;
62925;SDS011;55732;52.248;-0.844;2023-02-28T13:26:17;1.60;;;1.50;;
62925;SDS011;55732;52.248;-0.844;2023-02-28T13:31:20;1.50;;;1.40;;
62925;SDS011;55732;52.248;-0.844;2023-02-28T13:46:34;2.20;;;1.40;;
62925;SDS011;55732;52.248;-0.844;2023-02-28T13:49:17;1.60;;;1.50;;
62925;SDS011;55732;52.248;-0.844;2023-02-28T14:02:52;1.40;;;1.30;;
62925;SDS011;55732;52.248;-0.844;2023-02-28T14:05:19;1.80;;;1.50;;
62925;SDS011;55732;52.248;-0.844;2023-02-28T14:07:55;1.60;;;1.30;;
62925;SDS011;55732;52.248;-0.844;2023-02-28T14:13:10;3.70;;;2.10;;
62925;SDS011;55732;52.248;-0.844;2023-02-28T14:15:59;4.80;;;3.20;;
62925;SDS011;55732;52.248;-0.844;2023-02-28T14:18:31;3.50;;;2.70;;
62925;SDS011;55732;52.248;-0.844;2023-02-28T14:21:16;5.70;;;3.30;;
62925;SDS011;55732;52.248;-0.844;2023-02-28T14:26:29;3.30;;;2.70;;
62925;SDS011;55732;52.248;-0.844;2023-02-28T14:31:54;4.70;;;3.20;;
62925;SDS011;55732;52.248;-0.844;2023-02-28T14:39:43;3.30;;;2.60;;
62925;SDS011;55732;52.248;-0.844;2023-02-28T14:42:28;3.20;;;2.30;;
62925;SDS011;55732;52.248;-0.844;2023-02-28T14:44:56;4.20;;;2.20;;
62925;SDS011;55732;52.248;-0.844;2023-02-28T14:47:23;2.70;;;1.80;;
62925;SDS011;55732;52.248;-0.844;2023-02-28T14:49:52;2.20;;;1.80;;
62925;SDS011;55732;52.248;-0.844;2023-02-28T14:52:20;4.00;;;1.50;;
62925;SDS011;55732;52.248;-0.844;2023-02-28T14:54:46;2.70;;;1.50;;
62925;SDS011;55732;52.248;-0.844;2023-02-28T14:57:23;1.60;;;1.50;;
62925;SDS011;55732;52.248;-0.844;2023-02-28T14:59:57;1.80;;;1.50;;
62925;SDS011;55732;52.248;-0.844;2023-02-28T15:02:43;1.60;;;1.50;;
62925;SDS011;55732;52.248;-0.844;2023-02-28T15:07:46;1.30;;;1.20;;
62925;SDS011;55732;52.248;-0.844;2023-02-28T15:12:51;0.80;;;0.80;;
62925;SDS011;55732;52.248;-0.844;2023-02-28T15:15:27;2.40;;;1.00;;
62925;SDS011;55732;52.248;-0.844;2023-02-28T15:17:56;1.70;;;1.10;;
62925;SDS011;55732;52.248;-0.844;2023-02-28T15:20:24;1.40;;;1.30;;
62925;SDS011;55732;52.248;-0.844;2023-02-28T15:22:51;1.20;;;1.00;;
62925;SDS011;55732;52.248;-0.844;2023-02-28T15:25:20;1.10;;;1.10;;
62925;SDS011;55732;52.248;-0.844;2023-02-28T15:27:51;1.00;;;1.00;;
62925;SDS011;55732;52.248;-0.844;2023-02-28T15:30:21;1.90;;;1.20;;
62925;SDS011;55732;52.248;-0.844;2023-02-28T15:35:36;1.20;;;1.10;;
62925;SDS011;55732;52.248;-0.844;2023-02-28T15:38:03;1.00;;;1.00;;
62925;SDS011;55732;52.248;-0.844;2023-02-28T15:40:42;1.10;;;0.90;;
62925;SDS011;55732;52.248;-0.844;2023-02-28T15:45:52;1.30;;;1.10;;
62925;SDS011;55732;52.248;-0.844;2023-02-28T15:48:36;1.40;;;1.00;;
62925;SDS011;55732;52.248;-0.844;2023-02-28T15:51:09;1.10;;;1.00;;
62925;SDS011;55732;52.248;-0.844;2023-02-28T15:54:02;1.00;;;1.00;;
62925;SDS011;55732;52.248;-0.844;2023-02-28T15:56:34;1.90;;;1.60;;
62925;SDS011;55732;52.248;-0.844;2023-02-28T15:59:07;2.70;;;1.80;;
62925;SDS011;55732;52.248;-0.844;2023-02-28T16:01:39;2.70;;;1.90;;
62925;SDS011;55732;52.248;-0.844;2023-02-28T16:04:06;1.00;;;1.00;;
62925;SDS011;55732;52.248;-0.844;2023-02-28T16:06:45;2.10;;;1.80;;
62925;SDS011;55732;52.248;-0.844;2023-02-28T16:09:31;3.90;;;2.20;;
62925;SDS011;55732;52.248;-0.844;2023-02-28T16:12:00;3.20;;;2.00;;
62925;SDS011;55732;52.248;-0.844;2023-02-28T16:14:28;1.60;;;1.50;;
62925;SDS011;55732;52.248;-0.844;2023-02-28T16:17:00;1.30;;;1.30;;
62925;SDS011;55732;52.248;-0.844;2023-02-28T16:19:29;2.10;;;1.60;;
62925;SDS011;55732;52.248;-0.844;2023-02-28T16:21:56;1.80;;;1.40;;
62925;SDS011;55732;52.248;-0.844;2023-02-28T16:24:22;1.50;;;1.30;;
62925;SDS011;55732;52.248;-0.844;2023-02-28T16:26:47;1.40;;;1.30;;
62925;SDS011;55732;52.248;-0.844;2023-02-28T16:29:23;1.10;;;1.10;;
62925;SDS011;55732;52.248;-0.844;2023-02-28T16:31:51;3.30;;;1.20;;
62925;SDS011;55732;52.248;-0.844;2023-02-28T16:34:16;1.20;;;0.80;;
62925;SDS011;55732;52.248;-0.844;2023-02-28T16:36:42;1.50;;;1.40;;
62925;SDS011;55732;52.248;-0.844;2023-02-28T16:39:12;4.10;;;1.30;;
62925;SDS011;55732;52.248;-0.844;2023-02-28T16:41:37;1.40;;;1.10;;
62925;SDS011;55732;52.248;-0.844;2023-02-28T16:44:10;0.80;;;0.80;;
62925;SDS011;55732;52.248;-0.844;2023-02-28T16:46:39;1.40;;;1.20;;
62925;SDS011;55732;52.248;-0.844;2023-02-28T16:49:05;1.10;;;1.10;;
62925;SDS011;55732;52.248;-0.844;2023-02-28T16:51:36;2.50;;;1.40;;
62925;SDS011;55732;52.248;-0.844;2023-02-28T16:54:02;2.00;;;1.40;;
62925;SDS011;55732;52.248;-0.844;2023-02-28T16:56:27;1.60;;;1.30;;
62925;SDS011;55732;52.248;-0.844;2023-02-28T16:58:53;1.20;;;1.10;;
62925;SDS011;55732;52.248;-0.844;2023-02-28T17:01:22;2.40;;;1.20;;
62925;SDS011;55732;52.248;-0.844;2023-02-28T17:03:48;4.20;;;1.30;;
62925;SDS011;55732;52.248;-0.844;2023-02-28T17:06:17;4.00;;;2.00;;
62925;SDS011;55732;52.248;-0.844;2023-02-28T17:08:48;1.70;;;1.50;;
62925;SDS011;55732;52.248;-0.844;2023-02-28T17:11:17;1.00;;;1.00;;
62925;SDS011;55732;52.248;-0.844;2023-02-28T17:13:43;1.50;;;1.40;;
62925;SDS011;55732;52.248;-0.844;2023-02-28T17:16:42;3.40;;;2.20;;
62925;SDS011;55732;52.248;-0.844;2023-02-28T17:19:05;3.70;;;2.00;;
62925;SDS011;55732;52.248;-0.844;2023-02-28T17:21:32;1.70;;;1.60;;
62925;SDS011;55732;52.248;-0.844;2023-02-28T17:23:59;1.50;;;1.40;;
62925;SDS011;55732;52.248;-0.844;2023-02-28T17:26:25;1.40;;;1.30;;
62925;SDS011;55732;52.248;-0.844;2023-02-28T17:28:54;2.40;;;1.40;;
62925;SDS011;55732;52.248;-0.844;2023-02-28T17:31:25;2.00;;;1.40;;
62925;SDS011;55732;52.248;-0.844;2023-02-28T17:33:51;1.40;;;1.20;;
62925;SDS011;55732;52.248;-0.844;2023-02-28T17:36:22;1.50;;;1.30;;
62925;SDS011;55732;52.248;-0.844;2023-02-28T17:38:50;1.60;;;1.30;;